»·PEaware :: N825TJ KLAS-KRNO

N825TJ :: KLAS-KRNO

FLIGHT INFORMATION

Flight Status: Arrived
Operator: Privately registered:
United States
More flights under this callsign
Pilot: Tyler J. (19619)
Aircraft: CESSNA 525A CITATION CJ2
(C25A)
More flights by this aircraft type
Origin: KLAS McCarran Intl
United States
Destination: KRNO Reno/Tahoe Intl
United States
More flights between these airports :: More routes between these airports
Route: SHEAD1 KENNO KENNO2
File this flight plan on PilotEdge
Remarks:
Altitude:
(Current/Filed)
34,000ft
Speed:
(Current/Filed)
430kts
Departed: 23-Aug-18 08:46 AM
Arrived: 23-Aug-18 09:46 AM
Distance/Time
Traveled:
300nm/1:00
Distance/Time
To Go:
Arrived

Flight Plot

Page will automatically refresh every two minutes.

Flight plan parsing failed; only flown route is shown


Map Options




Map Legend


Flown Route
Filed Route
Departure Airport
Arrival Airport
Navaid (VOR, NDB)
Fix

Horizontal Profiles

Position Reports

Time Latitude Longitude Heading Altitude Ground
Speed
23-Aug-18 08:27 36.081944 -115.170155 93 2185ft 0kts
23-Aug-18 08:28 36.081944 -115.170155 93 2185ft 0kts
23-Aug-18 08:29 36.081944 -115.170155 93 2185ft 0kts
23-Aug-18 08:30 36.081944 -115.170155 93 2185ft 0kts
23-Aug-18 08:31 36.081944 -115.170155 93 2185ft 0kts
23-Aug-18 08:32 36.081944 -115.170155 93 2185ft 0kts
23-Aug-18 08:33 36.081944 -115.170155 93 2185ft 0kts
23-Aug-18 08:34 36.081944 -115.170153 93 2185ft 0kts
23-Aug-18 08:35 36.081944 -115.170152 93 2185ft 0kts
23-Aug-18 08:36 36.081944 -115.170150 93 2185ft 0kts
23-Aug-18 08:37 36.081927 -115.170050 121 2185ft 1kts
23-Aug-18 08:38 36.081520 -115.169182 67 2185ft 7kts
23-Aug-18 08:39 36.084311 -115.167467 24 2185ft 10kts
23-Aug-18 08:40 36.086400 -115.166361 25 2185ft 14kts
23-Aug-18 08:41 36.090434 -115.164012 25 2185ft 13kts
23-Aug-18 08:42 36.094436 -115.161754 23 2185ft 15kts
23-Aug-18 08:43 36.097889 -115.159820 26 2185ft 10kts
23-Aug-18 08:44 36.099591 -115.157954 37 2185ft 10kts
23-Aug-18 08:45 36.099779 -115.157231 100 2185ft 0kts
23-Aug-18 08:46 36.098919 -115.156749 205 2185ft 0kts
23-Aug-18 08:47 36.068493 -115.174480 205 3288ft 224kts
23-Aug-18 08:48 36.013651 -115.216796 227 4891ft 249kts
23-Aug-18 08:49 35.979062 -115.283636 237 6994ft 250kts
23-Aug-18 08:50 35.929785 -115.352182 223 11118ft 278kts
23-Aug-18 08:51 35.890498 -115.435050 259 15820ft 297kts
23-Aug-18 08:52 35.887864 -115.539125 270 19490ft 311kts
23-Aug-18 08:53 35.890298 -115.647175 270 22751ft 319kts
23-Aug-18 08:54 35.892273 -115.757505 269 25675ft 326kts
23-Aug-18 08:55 35.894124 -115.870835 269 28331ft 334kts
23-Aug-18 08:56 35.916039 -115.981545 301 30727ft 350kts
23-Aug-18 08:57 35.983376 -116.071256 310 32463ft 363kts
23-Aug-18 08:58 36.057886 -116.157903 310 33768ft 370kts
23-Aug-18 08:59 36.135005 -116.246995 310 34122ft 389kts
23-Aug-18 09:00 36.215269 -116.339920 311 34123ft 400kts
23-Aug-18 09:01 36.296927 -116.434637 311 34124ft 404kts
23-Aug-18 09:02 36.378911 -116.530079 311 34129ft 404kts
23-Aug-18 09:03 36.461038 -116.626063 311 34137ft 405kts
23-Aug-18 09:04 36.543292 -116.722000 313 34136ft 407kts
23-Aug-18 09:05 36.636767 -116.803524 322 34154ft 413kts
23-Aug-18 09:06 36.732462 -116.876601 323 34150ft 414kts
23-Aug-18 09:07 36.830636 -116.951000 323 34156ft 414kts
23-Aug-18 09:08 36.929135 -117.026086 323 34164ft 414kts
23-Aug-18 09:09 37.027269 -117.101269 323 34165ft 414kts
23-Aug-18 09:10 37.125653 -117.176941 323 34175ft 414kts
23-Aug-18 09:11 37.223819 -117.252700 323 34193ft 415kts
23-Aug-18 09:12 37.319084 -117.333537 317 34210ft 409kts
23-Aug-18 09:13 37.406014 -117.424459 315 34206ft 406kts
23-Aug-18 09:14 37.493512 -117.515852 320 34228ft 412kts
23-Aug-18 09:15 37.589646 -117.595925 323 34224ft 416kts
23-Aug-18 09:16 37.687615 -117.673521 324 34242ft 416kts
23-Aug-18 09:17 37.785625 -117.751183 324 34244ft 416kts
23-Aug-18 09:18 37.883720 -117.829299 324 34248ft 416kts
23-Aug-18 09:19 37.981312 -117.907348 324 34253ft 415kts
23-Aug-18 09:20 38.076440 -117.983693 324 34262ft 415kts
23-Aug-18 09:21 38.173720 -118.062023 324 34263ft 415kts
23-Aug-18 09:22 38.271267 -118.140828 324 34265ft 414kts
23-Aug-18 09:23 38.368546 -118.219677 325 34273ft 414kts
23-Aug-18 09:24 38.457312 -118.308655 315 32960ft 403kts
23-Aug-18 09:25 38.538779 -118.408472 314 31462ft 410kts
23-Aug-18 09:26 38.621331 -118.511700 314 29898ft 418kts
23-Aug-18 09:27 38.705103 -118.616074 314 28424ft 419kts
23-Aug-18 09:28 38.784880 -118.715011 314 25796ft 361kts
23-Aug-18 09:29 38.854437 -118.801549 314 23512ft 360kts
23-Aug-18 09:30 38.927760 -118.893487 314 21141ft 364kts
23-Aug-18 09:31 38.999940 -118.984341 314 18744ft 363kts
23-Aug-18 09:32 39.071111 -119.073786 314 17160ft 342kts
23-Aug-18 09:33 39.137097 -119.156937 314 16611ft 326kts
23-Aug-18 09:34 39.202323 -119.239016 314 15649ft 331kts
23-Aug-18 09:35 39.265009 -119.318269 315 14473ft 303kts
23-Aug-18 09:36 39.324940 -119.394072 316 13386ft 304kts
23-Aug-18 09:37 39.388179 -119.460996 322 11974ft 286kts
23-Aug-18 09:38 39.452358 -119.521860 323 10571ft 285kts
23-Aug-18 09:39 39.512451 -119.576648 325 9752ft 241kts
23-Aug-18 09:40 39.566428 -119.625282 324 9165ft 236kts
23-Aug-18 09:41 39.620622 -119.675779 320 8105ft 239kts
23-Aug-18 09:42 39.635579 -119.738632 247 7846ft 157kts
23-Aug-18 09:43 39.603169 -119.760992 190 6462ft 125kts
23-Aug-18 09:44 39.569458 -119.766117 182 5707ft 124kts
23-Aug-18 09:45 39.535855 -119.766634 180 4955ft 116kts
23-Aug-18 09:46 39.504966 -119.766787 181 4419ft 72kts
23-Aug-18 09:47 39.497848 -119.766191 86 4419ft 9kts
23-Aug-18 09:48 39.500621 -119.765746 1 4419ft 15kts
23-Aug-18 09:49 39.502044 -119.764344 25 4419ft 0kts
23-Aug-18 09:50 39.502045 -119.764344 25 4419ft 0kts
23-Aug-18 09:51 39.502045 -119.764344 25 4419ft 0kts
23-Aug-18 09:52 39.502045 -119.764344 25 4419ft 0kts
23-Aug-18 09:53 39.502045 -119.764344 25 4419ft 0kts
23-Aug-18 09:54 39.502045 -119.764344 25 4419ft 0kts
23-Aug-18 09:55 39.502045 -119.764344 25 4419ft 0kts
23-Aug-18 09:56 39.502045 -119.764344 25 4419ft 0kts
23-Aug-18 09:57 39.502045 -119.764344 25 4419ft 0kts
23-Aug-18 09:58 39.502045 -119.764344 25 4419ft 0kts
23-Aug-18 09:59 39.502045 -119.764344 25 4419ft 0kts
23-Aug-18 10:00 39.502045 -119.764344 25 4419ft 0kts
23-Aug-18 10:01 39.502045 -119.764344 25 4419ft 0kts
23-Aug-18 10:02 39.502045 -119.764344 25 4419ft 0kts

Navigation Log

Ident Type
Flight plan parsing failed, navigation log unavailable